Main page
METAR-TAF:

METAR-TAF

Airports :

Isle of Man Airport

Isle of Man,

latitude: 54-05N, longitude: 004-38W, elevation: 17 m

Current weather observation

The report was made 2 hours and 4 minutes ago, at 02:50 UTC
Wind 12 kt from the North/Northeast, varying between North/Northwest and East/Northeast
Temperature 6°C
Humidity 87%
Pressure 1007 hPa
Visibility 10 km or more
Few clouds at a height of 1800 ft
Scattered clouds at a height of 2600 ft
Overcast at a height of 4000 ft

METAR: EGNS 210250Z 03012KT 340V070 9999 FEW018 SCT026 OVC040 06/04 Q1007

Time: 04:54 (04:54 UTC)

Forecast

The report was made 11 hours and 54 minutes ago, at 17:00 UTC
Forecast valid from 20 at 18 UTC to 20 at 22 UTC
Wind 17 kt from the Northeast
Visibility 10 km or more
Scattered clouds at a height of 2000 ft

TAF: EGNS 201700Z 2018/2022 04017KT 9999 SCT020

Weather observations and forecasts of more than 4000 airports (METAR and TAF reports).

The available stations are represented by yellow and red dots on the map.

Hover mouse over dot to see the name of the station.

Then click to see weather observations and forecasts.

To change the map : click on the green buttons with a black cross to zoom in, on the green button with a dash to zoom out, or on the green arrows for adjacent maps.


METAR-TAF: